createdAt,value
2023-02-28T00:00:17.758Z,18.17
2023-02-28T00:00:49.608Z,16.70
2023-02-28T00:01:21.691Z,17.63
2023-02-28T00:01:53.604Z,18.33
2023-02-28T00:02:25.447Z,17.90
2023-02-28T00:02:57.368Z,17.57
2023-02-28T00:03:29.301Z,18.40
2023-02-28T00:04:01.341Z,18.43
2023-02-28T00:04:33.223Z,18.83
2023-02-28T00:05:06.477Z,18.40
2023-02-28T00:05:38.607Z,18.43
2023-02-28T00:06:11.473Z,18.27
2023-02-28T00:06:43.587Z,17.67
2023-02-28T00:07:15.583Z,18.37
2023-02-28T00:07:48.331Z,19.43
2023-02-28T00:08:20.080Z,18.77
2023-02-28T00:08:51.961Z,18.87
2023-02-28T00:09:23.804Z,18.83
2023-02-28T00:09:55.624Z,18.63
2023-02-28T00:10:31.885Z,18.27
2023-02-28T00:11:41.611Z,19.13
2023-02-28T00:12:17.440Z,18.60
2023-02-28T00:12:50.641Z,19.37
2023-02-28T00:13:22.457Z,19.17
2023-02-28T00:13:54.210Z,18.73
2023-02-28T00:14:25.993Z,17.60
2023-02-28T00:14:57.853Z,18.97
2023-02-28T00:15:29.880Z,19.43
2023-02-28T00:16:10.753Z,17.80
2023-02-28T00:16:42.689Z,17.67
2023-02-28T00:17:14.565Z,18.07
2023-02-28T00:17:46.608Z,18.47
2023-02-28T00:18:19.861Z,19.70
2023-02-28T00:18:52.592Z,19.30
2023-02-28T00:19:24.399Z,19.53
2023-02-28T00:19:56.933Z,18.40
2023-02-28T00:20:29.077Z,18.90
2023-02-28T00:21:01.002Z,17.50
2023-02-28T00:21:32.877Z,18.30
2023-02-28T00:22:04.712Z,19.00
2023-02-28T00:22:37.915Z,19.20
2023-02-28T00:23:09.794Z,18.67
2023-02-28T00:23:41.691Z,18.90
2023-02-28T00:24:13.656Z,19.27
2023-02-28T00:24:45.627Z,18.97
2023-02-28T00:25:21.205Z,19.60
2023-02-28T00:25:53.088Z,18.50
2023-02-28T00:26:24.896Z,18.70
2023-02-28T00:26:56.715Z,18.67
2023-02-28T00:27:28.656Z,19.40
2023-02-28T00:28:00.508Z,19.53
2023-02-28T00:28:32.650Z,19.13
2023-02-28T00:29:04.472Z,19.27
2023-02-28T00:29:36.547Z,19.93
2023-02-28T00:30:11.680Z,19.97
2023-02-28T00:30:43.887Z,18.97
2023-02-28T00:31:15.766Z,18.67
2023-02-28T00:31:47.596Z,19.50
2023-02-28T00:32:20.121Z,18.43
2023-02-28T00:32:52.519Z,18.30
2023-02-28T00:33:24.759Z,18.77
2023-02-28T00:33:56.573Z,18.20
2023-02-28T00:34:28.534Z,18.33
2023-02-28T00:35:00.941Z,18.43
2023-02-28T00:35:33.067Z,18.80
2023-02-28T00:36:10.807Z,18.23
2023-02-28T00:36:46.472Z,19.07
2023-02-28T00:37:18.346Z,19.20
2023-02-28T00:37:50.876Z,18.77
2023-02-28T00:38:22.837Z,19.10
2023-02-28T00:38:54.708Z,18.60
2023-02-28T00:39:26.495Z,18.70
2023-02-28T00:39:58.379Z,18.50
2023-02-28T00:40:30.297Z,17.67
2023-02-28T00:41:05.812Z,18.03
2023-02-28T00:41:37.840Z,17.63
2023-02-28T00:42:10.030Z,18.17
2023-02-28T00:42:41.912Z,18.83
2023-02-28T00:43:13.818Z,18.67
2023-02-28T00:43:45.654Z,18.63
2023-02-28T00:44:17.490Z,17.47
2023-02-28T00:44:49.364Z,17.53
2023-02-28T00:45:21.394Z,17.03
2023-02-28T00:45:53.434Z,17.23
2023-02-28T00:46:25.331Z,17.90
2023-02-28T00:46:57.708Z,17.83
2023-02-28T00:47:29.539Z,18.10
2023-02-28T00:48:01.513Z,18.47
2023-02-28T00:48:33.875Z,18.17
2023-02-28T00:49:05.808Z,18.23
2023-02-28T00:49:37.670Z,18.43
2023-02-28T00:50:10.633Z,17.57
2023-02-28T00:50:42.477Z,17.80
2023-02-28T00:51:14.345Z,17.43
2023-02-28T00:51:46.166Z,17.77
2023-02-28T00:52:18.089Z,17.80
2023-02-28T00:52:49.930Z,17.53
2023-02-28T00:53:21.838Z,17.47
2023-02-28T00:53:53.686Z,17.80
2023-02-28T00:54:25.729Z,17.47
2023-02-28T00:54:57.700Z,16.83
2023-02-28T00:55:29.448Z,16.63
2023-02-28T00:56:01.810Z,16.90
2023-02-28T00:56:33.617Z,17.57
2023-02-28T00:57:05.593Z,17.00
2023-02-28T00:57:37.840Z,16.33
2023-02-28T00:58:09.902Z,16.53
2023-02-28T00:58:41.848Z,16.83
2023-02-28T00:59:17.854Z,16.87
2023-02-28T00:59:49.714Z,16.57
2023-02-28T01:00:21.680Z,17.57
2023-02-28T01:00:54.931Z,17.93
2023-02-28T01:01:26.987Z,18.03
2023-02-28T01:01:59.087Z,17.27
2023-02-28T01:02:31.502Z,17.33
2023-02-28T01:03:03.466Z,17.97
2023-02-28T01:03:35.741Z,17.23
2023-02-28T01:04:07.891Z,17.20
2023-02-28T01:04:39.843Z,16.50
2023-02-28T01:05:11.736Z,17.07
2023-02-28T01:05:46.537Z,17.10
2023-02-28T01:06:18.703Z,16.93
2023-02-28T01:06:50.758Z,16.90
2023-02-28T01:07:25.025Z,17.03
2023-02-28T01:07:56.854Z,17.70
2023-02-28T01:08:28.989Z,17.47
2023-02-28T01:09:01.436Z,16.63
2023-02-28T01:09:33.491Z,16.27
2023-02-28T01:10:05.893Z,16.67
2023-02-28T01:10:39.439Z,17.83
2023-02-28T01:11:13.108Z,16.83
2023-02-28T01:11:45.193Z,16.83
2023-02-28T01:12:17.542Z,17.37
2023-02-28T01:12:49.409Z,17.33
2023-02-28T01:13:21.609Z,16.80
2023-02-28T01:13:53.569Z,18.23
2023-02-28T01:14:25.425Z,18.03
2023-02-28T01:14:57.299Z,16.07
2023-02-28T01:15:29.817Z,16.30
2023-02-28T01:16:01.787Z,16.63
2023-02-28T01:16:33.794Z,16.63
2023-02-28T01:17:05.609Z,17.03
2023-02-28T01:17:37.775Z,17.67
2023-02-28T01:18:09.568Z,17.67
2023-02-28T01:18:42.053Z,17.97
2023-02-28T01:19:13.994Z,17.53
2023-02-28T01:19:45.817Z,16.70
2023-02-28T01:20:18.105Z,16.93
2023-02-28T01:20:50.304Z,18.70
2023-02-28T01:21:23.231Z,18.13
2023-02-28T01:21:55.065Z,16.40
2023-02-28T01:22:27.394Z,16.90
2023-02-28T01:22:59.207Z,16.73
2023-02-28T01:23:31.012Z,16.47
2023-02-28T01:24:03.854Z,17.17
2023-02-28T01:24:35.773Z,17.10
2023-02-28T01:25:08.202Z,17.43
2023-02-28T01:25:40.878Z,17.17
2023-02-28T01:26:18.204Z,17.17
2023-02-28T01:26:50.558Z,17.17
2023-02-28T01:27:22.348Z,17.57
2023-02-28T01:27:54.512Z,18.27
2023-02-28T01:28:26.435Z,18.33
2023-02-28T01:28:58.409Z,18.30
2023-02-28T01:29:30.259Z,17.23
2023-02-28T01:30:02.112Z,17.43
2023-02-28T01:30:34.347Z,17.60
2023-02-28T01:31:06.782Z,18.00
2023-02-28T01:31:38.747Z,18.27
2023-02-28T01:32:10.629Z,18.10
2023-02-28T01:32:42.548Z,17.80
2023-02-28T01:33:14.355Z,17.67
2023-02-28T01:33:46.997Z,17.47
2023-02-28T01:34:20.455Z,17.20
2023-02-28T01:34:52.263Z,17.13
2023-02-28T01:35:24.118Z,16.97
2023-02-28T01:36:05.276Z,17.13
2023-02-28T01:36:37.658Z,17.57
2023-02-28T01:37:09.477Z,17.23
2023-02-28T01:37:41.340Z,17.27
2023-02-28T01:38:22.279Z,17.90
2023-02-28T01:38:55.173Z,17.03
2023-02-28T01:39:27.889Z,17.67
2023-02-28T01:39:59.703Z,17.60
2023-02-28T01:40:31.930Z,17.20
2023-02-28T01:41:03.981Z,17.60
2023-02-28T01:41:36.444Z,17.00
2023-02-28T01:42:10.517Z,16.60
2023-02-28T01:42:42.526Z,17.17
2023-02-28T01:43:25.254Z,17.83
2023-02-28T01:44:04.341Z,17.17
2023-02-28T01:45:13.298Z,16.57
2023-02-28T01:45:45.094Z,17.93
2023-02-28T01:46:20.397Z,17.97
2023-02-28T01:46:52.163Z,18.53
2023-02-28T01:47:28.576Z,16.80
2023-02-28T01:48:07.345Z,16.33
2023-02-28T01:48:52.660Z,17.70
2023-02-28T01:49:24.508Z,17.97
2023-02-28T01:49:56.947Z,16.37
2023-02-28T01:50:34.277Z,17.70
2023-02-28T01:51:12.490Z,17.63
2023-02-28T01:51:55.874Z,17.17
2023-02-28T01:52:28.977Z,17.47
2023-02-28T01:53:05.622Z,18.43
2023-02-28T01:53:48.382Z,16.30
2023-02-28T01:54:35.025Z,17.53
2023-02-28T01:55:08.943Z,18.07
2023-02-28T01:55:46.258Z,17.93
2023-02-28T01:56:24.549Z,17.50
2023-02-28T01:57:02.963Z,18.10
2023-02-28T01:57:52.033Z,19.07
2023-02-28T01:58:24.466Z,18.40
2023-02-28T01:58:57.267Z,18.10
2023-02-28T01:59:41.678Z,18.30
2023-02-28T02:00:16.485Z,18.13
2023-02-28T02:00:49.032Z,18.53
2023-02-28T02:01:24.698Z,18.33
2023-02-28T02:01:57.091Z,18.30
2023-02-28T02:02:30.449Z,17.70
2023-02-28T02:03:09.934Z,18.00
2023-02-28T02:03:42.004Z,18.53
2023-02-28T02:04:14.054Z,19.50
2023-02-28T02:05:06.266Z,18.70
2023-02-28T02:05:40.467Z,19.90
2023-02-28T02:06:12.293Z,19.70
2023-02-28T02:06:47.608Z,18.93
2023-02-28T02:07:19.770Z,18.50
2023-02-28T02:07:57.262Z,18.40
2023-02-28T02:08:30.542Z,19.00
2023-02-28T02:09:03.591Z,19.00
2023-02-28T02:09:35.409Z,18.03
2023-02-28T02:10:20.052Z,18.97
2023-02-28T02:10:56.951Z,18.87
2023-02-28T02:11:30.777Z,19.67
2023-02-28T02:12:19.829Z,20.10
2023-02-28T02:13:14.095Z,19.60
2023-02-28T02:14:08.915Z,19.33
2023-02-28T02:15:15.610Z,18.57
2023-02-28T02:16:19.431Z,19.13
2023-02-28T02:17:02.352Z,19.50
2023-02-28T02:17:46.878Z,18.87
2023-02-28T02:18:30.590Z,19.23
2023-02-28T02:19:35.877Z,19.47
2023-02-28T02:20:28.431Z,19.33
2023-02-28T02:21:12.301Z,20.37
2023-02-28T02:22:09.655Z,20.23
2023-02-28T02:23:18.448Z,19.43
2023-02-28T02:24:08.593Z,19.27
2023-02-28T02:25:12.994Z,19.60
2023-02-28T02:25:58.115Z,20.03
2023-02-28T02:26:32.645Z,18.37
2023-02-28T02:27:17.362Z,18.90
2023-02-28T02:28:42.602Z,19.67
2023-02-28T02:29:17.279Z,20.47
2023-02-28T02:30:10.404Z,19.93
2023-02-28T02:31:43.592Z,19.97
2023-02-28T02:32:35.768Z,19.47
2023-02-28T02:33:38.687Z,20.33
2023-02-28T02:34:16.375Z,21.10
2023-02-28T02:35:11.381Z,20.80
2023-02-28T02:35:57.363Z,20.67
2023-02-28T02:36:39.949Z,19.70
2023-02-28T02:37:36.064Z,19.80
2023-02-28T02:40:18.517Z,20.30
2023-02-28T02:40:56.406Z,20.57
2023-02-28T02:41:47.570Z,20.47
2023-02-28T02:42:29.695Z,20.20
2023-02-28T02:44:14.274Z,21.27
2023-02-28T02:57:51.732Z,20.43
2023-02-28T02:58:31.260Z,19.90
2023-02-28T03:01:17.435Z,20.07
2023-02-28T03:01:54.864Z,20.23
2023-02-28T03:02:35.443Z,20.10
2023-02-28T03:03:10.419Z,20.00
2023-02-28T03:03:43.348Z,20.87
2023-02-28T03:04:22.331Z,20.73
2023-02-28T03:05:03.676Z,20.27
2023-02-28T03:05:56.330Z,20.57
2023-02-28T03:06:28.671Z,21.57
2023-02-28T03:07:00.491Z,21.33
2023-02-28T03:07:32.240Z,19.77
2023-02-28T03:08:06.843Z,20.47
2023-02-28T03:08:39.810Z,21.17
2023-02-28T03:09:11.663Z,20.60
2023-02-28T03:09:52.982Z,20.30
2023-02-28T03:10:31.169Z,21.40
2023-02-28T03:11:10.143Z,21.77
2023-02-28T03:11:43.770Z,21.70
2023-02-28T03:12:15.538Z,21.17
2023-02-28T03:13:01.810Z,21.07
2023-02-28T03:13:48.586Z,21.13
2023-02-28T03:14:38.766Z,21.07
2023-02-28T03:15:49.645Z,20.67
2023-02-28T03:16:50.884Z,21.00
2023-02-28T03:17:36.557Z,21.83
2023-02-28T03:18:22.524Z,20.77
2023-02-28T03:19:04.086Z,19.80
2023-02-28T03:19:53.875Z,19.57
2023-02-28T03:20:41.777Z,20.27
2023-02-28T03:21:39.032Z,21.07
2023-02-28T03:27:22.384Z,19.20
2023-02-28T03:28:15.616Z,21.10
2023-02-28T03:28:59.346Z,20.40
2023-02-28T03:29:44.665Z,20.87
2023-02-28T03:30:43.106Z,19.63
2023-02-28T03:31:31.275Z,20.50
2023-02-28T03:32:22.773Z,21.00
2023-02-28T03:33:15.848Z,20.80
2023-02-28T03:33:58.343Z,20.20
2023-02-28T03:34:44.513Z,20.13
2023-02-28T03:35:23.822Z,21.03
2023-02-28T03:36:11.223Z,18.97
2023-02-28T03:36:50.905Z,18.83
2023-02-28T03:37:26.831Z,20.83
2023-02-28T03:38:19.208Z,21.03
2023-02-28T03:39:07.108Z,20.80
2023-02-28T03:39:45.609Z,19.73
2023-02-28T03:40:24.560Z,19.93
2023-02-28T03:41:06.862Z,20.00
2023-02-28T03:41:50.810Z,20.40
2023-02-28T03:42:28.408Z,19.03
2023-02-28T03:43:09.403Z,19.27
2023-02-28T03:43:49.314Z,19.00
2023-02-28T03:44:43.714Z,19.73
2023-02-28T03:45:20.834Z,19.80
2023-02-28T03:45:56.043Z,19.90
2023-02-28T03:46:36.117Z,19.70
2023-02-28T03:47:15.927Z,19.57
2023-02-28T03:48:06.676Z,20.33
2023-02-28T03:48:48.091Z,20.13
2023-02-28T03:49:47.084Z,20.20
2023-02-28T03:50:51.351Z,19.13
2023-02-28T03:51:27.605Z,19.23
2023-02-28T03:52:05.150Z,19.63
2023-02-28T03:52:46.283Z,19.70
2023-02-28T03:53:28.632Z,19.20
2023-02-28T03:54:09.533Z,19.00
2023-02-28T03:54:51.800Z,19.07
2023-02-28T03:55:24.228Z,19.50
2023-02-28T03:56:03.135Z,19.10
2023-02-28T03:56:42.519Z,20.13
2023-02-28T03:57:14.228Z,19.93
2023-02-28T03:58:02.929Z,19.97
2023-02-28T03:58:39.854Z,19.60
2023-02-28T03:59:19.416Z,20.10
2023-02-28T04:00:06.971Z,19.63
2023-02-28T04:00:44.869Z,20.27
2023-02-28T04:01:33.224Z,20.00
2023-02-28T04:02:05.387Z,19.07
2023-02-28T04:02:37.472Z,19.30
2023-02-28T04:03:09.936Z,19.70
2023-02-28T04:03:42.013Z,19.37
2023-02-28T04:04:15.824Z,19.73
2023-02-28T04:04:49.748Z,18.93
2023-02-28T04:05:23.462Z,19.20
2023-02-28T04:05:58.449Z,19.23
2023-02-28T04:06:33.305Z,19.30
2023-02-28T04:07:12.779Z,19.77
2023-02-28T04:07:44.720Z,18.97
2023-02-28T04:08:16.578Z,19.17
2023-02-28T04:08:48.635Z,19.20
2023-02-28T04:09:20.457Z,18.90
2023-02-28T04:09:53.173Z,19.67
2023-02-28T04:10:27.124Z,19.03
2023-02-28T04:11:12.786Z,19.67
2023-02-28T04:11:53.129Z,20.80
2023-02-28T04:12:25.053Z,20.40
2023-02-28T04:12:56.795Z,19.30
2023-02-28T04:13:28.590Z,19.00
2023-02-28T04:14:00.358Z,19.90
2023-02-28T04:14:32.226Z,19.97
2023-02-28T04:15:04.522Z,19.47
2023-02-28T04:15:36.370Z,19.97
2023-02-28T04:16:18.670Z,20.93
2023-02-28T04:16:53.592Z,19.23
2023-02-28T04:17:25.399Z,20.20
2023-02-28T04:17:57.178Z,20.27
2023-02-28T04:18:29.037Z,19.77
2023-02-28T04:19:03.884Z,20.27
2023-02-28T04:19:35.733Z,20.73
2023-02-28T04:20:10.756Z,20.73
2023-02-28T04:20:42.532Z,20.57
2023-02-28T04:21:14.616Z,20.03
2023-02-28T04:21:49.712Z,20.13
2023-02-28T04:22:21.436Z,20.13
2023-02-28T04:22:53.205Z,20.73
2023-02-28T04:23:24.964Z,20.67
2023-02-28T04:23:57.212Z,21.53
2023-02-28T04:24:29.606Z,21.60
2023-02-28T04:25:01.386Z,19.60
2023-02-28T04:25:33.147Z,20.33
2023-02-28T04:26:05.173Z,19.17
2023-02-28T04:26:38.022Z,19.07
2023-02-28T04:27:10.355Z,19.27
2023-02-28T04:27:42.225Z,20.60
2023-02-28T04:28:14.069Z,21.33
2023-02-28T04:28:45.887Z,20.47
2023-02-28T04:29:24.904Z,21.13
2023-02-28T04:29:56.722Z,19.90
2023-02-28T04:30:28.510Z,20.47
2023-02-28T04:31:04.982Z,20.17
2023-02-28T04:31:37.008Z,20.33
2023-02-28T04:32:08.877Z,19.93
2023-02-28T04:32:40.784Z,20.63
2023-02-28T04:33:12.743Z,20.50
2023-02-28T04:33:44.623Z,19.10
2023-02-28T04:34:17.571Z,19.07
2023-02-28T04:34:49.360Z,19.93
2023-02-28T04:35:21.163Z,19.20
2023-02-28T04:36:08.409Z,19.00
2023-02-28T04:36:40.323Z,20.77
2023-02-28T04:37:14.057Z,19.83
2023-02-28T04:37:46.128Z,18.70
2023-02-28T04:38:17.899Z,19.13
2023-02-28T04:38:50.525Z,18.50
2023-02-28T04:39:25.905Z,18.80
2023-02-28T04:39:57.632Z,19.23
2023-02-28T04:40:29.676Z,20.23
2023-02-28T04:41:01.749Z,19.10
2023-02-28T04:41:33.943Z,20.03
2023-02-28T04:42:06.157Z,19.83
2023-02-28T04:42:38.030Z,20.20
2023-02-28T04:43:09.805Z,20.53
2023-02-28T04:43:41.825Z,20.97
2023-02-28T04:44:14.064Z,19.90
2023-02-28T04:44:45.797Z,21.70
2023-02-28T04:45:18.370Z,21.43
2023-02-28T04:45:50.149Z,21.00
2023-02-28T04:46:22.028Z,20.83
2023-02-28T04:46:53.839Z,20.63
2023-02-28T04:47:25.702Z,21.60
2023-02-28T04:47:57.520Z,21.60
2023-02-28T04:48:31.501Z,21.83
2023-02-28T04:49:03.886Z,22.50
2023-02-28T04:49:36.110Z,23.07
2023-02-28T04:50:08.669Z,22.23
2023-02-28T04:50:40.453Z,21.33
2023-02-28T04:51:15.028Z,21.93
2023-02-28T04:51:46.868Z,21.93
2023-02-28T04:52:18.720Z,21.70
2023-02-28T04:52:50.530Z,22.73
2023-02-28T04:53:22.586Z,22.70
2023-02-28T04:53:54.353Z,22.40
2023-02-28T04:54:26.146Z,21.50
2023-02-28T04:54:57.950Z,20.93
2023-02-28T04:55:29.737Z,20.83
2023-02-28T04:56:01.920Z,21.43
2023-02-28T04:56:34.367Z,20.97
2023-02-28T04:57:06.498Z,20.90
2023-02-28T04:57:38.446Z,21.30
2023-02-28T04:58:10.265Z,21.40
2023-02-28T04:58:42.115Z,22.63
2023-02-28T04:59:13.890Z,22.13
2023-02-28T04:59:45.656Z,21.27
2023-02-28T05:00:17.886Z,22.37
2023-02-28T05:00:50.157Z,22.33
2023-02-28T05:01:31.022Z,23.37
2023-02-28T05:02:07.777Z,21.50
2023-02-28T05:02:40.537Z,21.30
2023-02-28T05:03:12.277Z,21.23
2023-02-28T05:03:44.976Z,20.93
2023-02-28T05:04:17.667Z,21.17
2023-02-28T05:04:49.525Z,19.63
2023-02-28T05:05:21.383Z,19.50
2023-02-28T05:05:53.190Z,19.93
2023-02-28T05:06:27.485Z,20.00
2023-02-28T05:06:59.242Z,20.27
2023-02-28T05:07:31.055Z,19.83
2023-02-28T05:08:03.050Z,20.03
2023-02-28T05:08:37.960Z,20.10
2023-02-28T05:09:09.745Z,20.00
2023-02-28T05:09:41.600Z,20.50
2023-02-28T05:10:13.741Z,19.40
2023-02-28T05:10:45.550Z,19.50
2023-02-28T05:11:30.727Z,19.97
2023-02-28T05:12:02.761Z,20.23
2023-02-28T05:12:34.483Z,20.00
2023-02-28T05:13:06.431Z,19.60
2023-02-28T05:13:38.265Z,19.57
2023-02-28T05:14:15.075Z,19.57
2023-02-28T05:14:46.938Z,19.03
2023-02-28T05:15:18.752Z,17.47
2023-02-28T05:15:50.930Z,18.40
2023-02-28T05:16:23.178Z,19.27
2023-02-28T05:16:54.977Z,18.73
2023-02-28T05:17:26.712Z,18.53
2023-02-28T05:17:58.495Z,18.77
2023-02-28T05:18:30.288Z,18.97
2023-02-28T05:19:02.093Z,18.70
2023-02-28T05:19:34.003Z,17.80
2023-02-28T05:20:15.122Z,18.97
2023-02-28T05:20:47.700Z,18.70
2023-02-28T05:21:28.288Z,19.07
2023-02-28T05:22:00.397Z,19.90
2023-02-28T05:22:32.182Z,18.67
2023-02-28T05:23:04.497Z,18.87
2023-02-28T05:23:36.309Z,17.73
2023-02-28T05:24:12.997Z,18.50
2023-02-28T05:24:44.851Z,19.07
2023-02-28T05:25:23.147Z,19.53
2023-02-28T05:25:55.251Z,19.73
2023-02-28T05:26:29.004Z,20.37
2023-02-28T05:27:01.228Z,20.43
2023-02-28T05:27:33.154Z,19.63
2023-02-28T05:28:07.822Z,19.37
2023-02-28T05:28:39.619Z,18.97
2023-02-28T05:29:11.504Z,19.60
2023-02-28T05:29:46.592Z,19.37
2023-02-28T05:30:18.624Z,19.70
2023-02-28T05:30:50.430Z,19.20
2023-02-28T05:31:22.481Z,19.47
2023-02-28T05:31:54.384Z,19.90
2023-02-28T05:32:26.280Z,18.90
2023-02-28T05:32:59.039Z,19.30
2023-02-28T05:33:30.776Z,19.93
2023-02-28T05:34:05.344Z,20.30
2023-02-28T05:34:40.862Z,20.17
2023-02-28T05:35:13.184Z,20.10
2023-02-28T05:35:45.101Z,18.73
2023-02-28T05:36:17.113Z,18.60
2023-02-28T05:36:48.969Z,18.70
2023-02-28T05:37:22.545Z,18.40
2023-02-28T05:37:54.606Z,19.57
2023-02-28T05:38:26.372Z,19.30
2023-02-28T05:38:58.198Z,18.73
2023-02-28T05:39:29.992Z,19.53
2023-02-28T05:40:02.214Z,18.53
2023-02-28T05:40:34.185Z,19.70
2023-02-28T05:41:07.923Z,19.67
2023-02-28T05:41:41.806Z,19.23
2023-02-28T05:42:13.616Z,20.20
2023-02-28T05:42:45.438Z,19.87
2023-02-28T05:43:17.164Z,20.33
2023-02-28T05:43:49.801Z,19.13
2023-02-28T05:44:21.567Z,19.77
2023-02-28T05:44:53.351Z,19.97
2023-02-28T05:45:25.273Z,19.40
2023-02-28T05:45:57.081Z,18.63
2023-02-28T05:46:28.920Z,19.13
2023-02-28T05:47:00.811Z,19.33
2023-02-28T05:47:32.618Z,18.63
2023-02-28T05:48:04.410Z,18.10
2023-02-28T05:48:37.852Z,18.23
2023-02-28T05:49:09.913Z,18.57
2023-02-28T05:49:41.929Z,20.23
2023-02-28T05:50:13.838Z,19.67
2023-02-28T05:50:47.152Z,19.63
2023-02-28T05:51:19.130Z,19.67
2023-02-28T05:51:50.921Z,18.97
2023-02-28T05:52:23.308Z,19.00
2023-02-28T05:52:55.067Z,19.30
2023-02-28T05:53:27.392Z,19.90
2023-02-28T05:54:02.628Z,19.27
2023-02-28T05:54:34.525Z,19.97
2023-02-28T05:55:06.960Z,20.10
2023-02-28T05:55:39.078Z,19.53
2023-02-28T05:56:10.939Z,19.43
2023-02-28T05:56:45.155Z,19.30
2023-02-28T05:57:24.405Z,20.53
2023-02-28T05:57:57.139Z,21.17
2023-02-28T05:58:32.445Z,19.80
2023-02-28T05:59:04.292Z,19.90
2023-02-28T05:59:36.148Z,19.00
2023-02-28T06:00:08.685Z,19.13
2023-02-28T06:00:42.309Z,19.37
2023-02-28T06:01:33.712Z,19.47
2023-02-28T06:02:05.439Z,19.80
2023-02-28T06:02:37.301Z,19.23
2023-02-28T06:03:09.188Z,19.37
2023-02-28T06:03:41.066Z,19.03
2023-02-28T06:04:25.783Z,19.63
2023-02-28T06:05:02.937Z,19.63
2023-02-28T06:05:34.868Z,20.17
2023-02-28T06:06:06.893Z,20.07
2023-02-28T06:06:38.982Z,21.13
2023-02-28T06:07:11.643Z,19.90
2023-02-28T06:07:44.525Z,19.53
2023-02-28T06:08:16.348Z,19.87
2023-02-28T06:08:48.213Z,19.70
2023-02-28T06:09:20.359Z,19.40
2023-02-28T06:09:52.113Z,20.07
2023-02-28T06:10:23.914Z,20.50
2023-02-28T06:10:55.712Z,20.73
2023-02-28T06:11:29.274Z,20.40
2023-02-28T06:12:04.827Z,20.53
2023-02-28T06:12:36.757Z,20.10
2023-02-28T06:13:08.664Z,21.33
2023-02-28T06:13:40.875Z,20.60
2023-02-28T06:14:19.818Z,20.43
2023-02-28T06:14:51.543Z,20.93
2023-02-28T06:15:23.318Z,21.73
2023-02-28T06:15:55.067Z,22.03
2023-02-28T06:16:28.718Z,21.07
2023-02-28T06:17:02.044Z,20.03
2023-02-28T06:17:33.874Z,21.17
2023-02-28T06:18:05.860Z,21.50
2023-02-28T06:18:37.734Z,21.37
2023-02-28T06:19:11.029Z,21.63
2023-02-28T06:19:42.854Z,22.03
2023-02-28T06:20:14.613Z,21.17
2023-02-28T06:20:55.537Z,20.80
2023-02-28T06:21:31.776Z,21.10
2023-02-28T06:22:03.789Z,22.83
2023-02-28T06:22:37.122Z,22.17
2023-02-28T06:23:08.920Z,22.77
2023-02-28T06:23:40.791Z,24.43
2023-02-28T06:24:12.665Z,26.03
2023-02-28T06:24:45.110Z,24.33
2023-02-28T06:25:17.100Z,23.87
2023-02-28T06:25:48.995Z,24.83
2023-02-28T06:26:21.597Z,25.13
2023-02-28T06:26:53.462Z,24.97
2023-02-28T06:27:25.290Z,23.57
2023-02-28T06:27:57.108Z,24.37
2023-02-28T06:28:28.955Z,24.40
2023-02-28T06:29:01.928Z,24.67
2023-02-28T06:29:35.328Z,24.70
2023-02-28T06:30:07.988Z,25.20
2023-02-28T06:30:40.263Z,25.63
2023-02-28T06:31:15.146Z,23.60
2023-02-28T06:31:47.783Z,22.90
2023-02-28T06:32:19.647Z,22.93
2023-02-28T06:32:51.492Z,22.83
2023-02-28T06:33:23.353Z,23.03
2023-02-28T06:33:55.905Z,25.93
2023-02-28T06:34:27.696Z,25.00
2023-02-28T06:34:59.593Z,25.67
2023-02-28T06:35:31.699Z,25.33
2023-02-28T06:36:22.499Z,24.97
2023-02-28T06:36:54.432Z,26.03
2023-02-28T06:37:27.296Z,26.80
2023-02-28T06:37:59.151Z,26.80
2023-02-28T06:38:31.699Z,26.70
2023-02-28T06:39:04.107Z,26.53
2023-02-28T06:39:36.050Z,28.27
2023-02-28T06:40:08.624Z,29.17
2023-02-28T06:40:40.390Z,29.73
2023-02-28T06:41:12.290Z,29.63
2023-02-28T06:41:54.615Z,30.17
2023-02-28T06:42:29.980Z,28.70
2023-02-28T06:43:01.813Z,30.53
2023-02-28T06:43:37.389Z,28.77
2023-02-28T06:44:17.046Z,30.57
2023-02-28T06:44:48.816Z,28.93
2023-02-28T06:45:20.800Z,27.23
2023-02-28T06:45:56.808Z,28.83
2023-02-28T06:46:28.644Z,26.90
2023-02-28T06:47:00.446Z,25.23
2023-02-28T06:47:32.442Z,25.93
2023-02-28T06:48:04.445Z,25.30
2023-02-28T06:48:36.727Z,25.03
2023-02-28T06:49:10.133Z,24.03
2023-02-28T06:49:41.935Z,23.77
2023-02-28T06:50:14.175Z,21.77
2023-02-28T06:50:45.974Z,23.00
2023-02-28T06:51:21.451Z,22.90
2023-02-28T06:51:53.225Z,24.97
2023-02-28T06:52:24.953Z,24.77
2023-02-28T06:52:56.720Z,23.20
2023-02-28T06:53:28.451Z,23.53
2023-02-28T06:54:00.226Z,23.67
2023-02-28T06:54:31.986Z,23.97
2023-02-28T06:55:06.105Z,22.17
2023-02-28T06:55:39.862Z,22.47
2023-02-28T06:56:14.774Z,22.03
2023-02-28T06:56:46.578Z,22.90
2023-02-28T06:57:18.341Z,22.33
2023-02-28T06:57:51.656Z,22.57
2023-02-28T06:58:23.580Z,23.33
2023-02-28T06:58:55.363Z,21.23
2023-02-28T06:59:27.130Z,21.33
2023-02-28T07:00:00.556Z,20.77
2023-02-28T07:00:32.504Z,20.57
2023-02-28T07:01:05.428Z,19.73
2023-02-28T07:01:37.275Z,19.93
2023-02-28T07:02:09.494Z,21.30
2023-02-28T07:02:41.365Z,20.77
2023-02-28T07:03:13.959Z,21.37
2023-02-28T07:03:47.240Z,20.27
2023-02-28T07:04:19.032Z,21.73
2023-02-28T07:04:51.004Z,22.53
2023-02-28T07:05:22.851Z,21.57
2023-02-28T07:05:54.861Z,20.87
2023-02-28T07:06:26.757Z,21.17
2023-02-28T07:06:58.547Z,21.73
2023-02-28T07:07:30.374Z,21.07
2023-02-28T07:08:05.247Z,22.03
2023-02-28T07:08:37.515Z,21.53
2023-02-28T07:09:09.416Z,21.50
2023-02-28T07:09:41.213Z,20.43
2023-02-28T07:10:13.920Z,21.47
2023-02-28T07:10:45.702Z,21.93
2023-02-28T07:11:17.800Z,21.60
2023-02-28T07:11:50.015Z,20.90
2023-02-28T07:12:22.201Z,20.20
2023-02-28T07:12:54.003Z,19.97
2023-02-28T07:13:26.024Z,21.17
2023-02-28T07:13:58.845Z,20.93
2023-02-28T07:14:30.633Z,20.57
2023-02-28T07:15:02.400Z,20.20
2023-02-28T07:15:34.219Z,20.63
2023-02-28T07:16:10.001Z,21.23
2023-02-28T07:16:41.814Z,21.67
2023-02-28T07:17:13.611Z,20.23
2023-02-28T07:17:45.378Z,20.57
2023-02-28T07:18:17.290Z,21.23
2023-02-28T07:18:49.697Z,20.63
2023-02-28T07:19:21.723Z,20.57
2023-02-28T07:19:53.494Z,20.50
2023-02-28T07:20:25.892Z,19.80
2023-02-28T07:20:58.084Z,20.10
2023-02-28T07:21:30.347Z,21.37
2023-02-28T07:22:03.850Z,20.53
2023-02-28T07:22:35.646Z,20.30
2023-02-28T07:23:07.403Z,20.23
2023-02-28T07:23:40.208Z,19.13
2023-02-28T07:24:12.135Z,20.07
2023-02-28T07:24:43.953Z,20.07
2023-02-28T07:25:15.866Z,19.80
2023-02-28T07:25:47.859Z,20.00
2023-02-28T07:26:21.556Z,21.23
2023-02-28T07:26:53.357Z,21.67
2023-02-28T07:27:26.590Z,21.47
2023-02-28T07:28:00.132Z,21.17
2023-02-28T07:28:32.060Z,21.43
2023-02-28T07:29:04.504Z,21.83
2023-02-28T07:29:36.326Z,21.57
2023-02-28T07:30:08.894Z,20.77
2023-02-28T07:30:40.963Z,20.33
2023-02-28T07:31:15.135Z,20.53
2023-02-28T07:31:47.759Z,21.63
2023-02-28T07:32:20.365Z,21.47
2023-02-28T07:32:52.147Z,20.73
2023-02-28T07:33:25.138Z,22.47
2023-02-28T07:33:57.507Z,20.43
2023-02-28T07:34:29.393Z,20.87
2023-02-28T07:35:01.140Z,20.17
2023-02-28T07:35:33.536Z,19.43
2023-02-28T07:36:24.492Z,19.57
2023-02-28T07:36:56.388Z,20.57
2023-02-28T07:37:28.101Z,21.97
2023-02-28T07:38:00.484Z,21.73
2023-02-28T07:38:35.550Z,22.90
2023-02-28T07:39:07.430Z,21.73
2023-02-28T07:39:39.346Z,23.67
2023-02-28T07:40:15.481Z,27.67
2023-02-28T07:40:47.275Z,27.27
2023-02-28T07:41:21.957Z,27.07
2023-02-28T07:41:53.895Z,27.60
2023-02-28T07:42:26.177Z,26.70
2023-02-28T07:43:01.462Z,24.33
2023-02-28T07:43:33.841Z,21.70
2023-02-28T07:44:06.090Z,20.97
2023-02-28T07:44:41.357Z,21.80
2023-02-28T07:45:13.192Z,21.50
2023-02-28T07:45:45.014Z,22.90
2023-02-28T07:46:18.260Z,21.47
2023-02-28T07:46:50.153Z,22.13
2023-02-28T07:47:23.531Z,21.60
2023-02-28T07:47:56.707Z,21.53
2023-02-28T07:48:28.521Z,20.93
2023-02-28T07:49:00.950Z,22.10
2023-02-28T07:49:33.204Z,22.30
2023-02-28T07:50:05.947Z,21.60
2023-02-28T07:50:37.851Z,22.80
2023-02-28T07:51:10.049Z,21.43
2023-02-28T07:51:41.835Z,21.17
2023-02-28T07:52:13.689Z,22.07
2023-02-28T07:52:45.592Z,23.10
2023-02-28T07:53:17.390Z,22.93
2023-02-28T07:53:49.490Z,22.50
2023-02-28T07:54:21.265Z,21.93